createdAt,value
2023-04-03T00:01:42.863Z,8.30
2023-04-03T00:04:12.555Z,8.77
2023-04-03T00:06:41.644Z,8.53
2023-04-03T00:09:10.749Z,8.53
2023-04-03T00:11:41.245Z,8.90
2023-04-03T00:14:10.288Z,8.90
2023-04-03T00:16:39.320Z,8.40
2023-04-03T00:19:08.274Z,8.27
2023-04-03T00:21:37.746Z,8.70
2023-04-03T00:24:07.390Z,8.97
2023-04-03T00:26:36.678Z,8.53
2023-04-03T00:29:07.318Z,8.67
2023-04-03T00:31:36.605Z,9.33
2023-04-03T00:34:05.766Z,9.37
2023-04-03T00:36:34.859Z,9.73
2023-04-03T00:39:03.987Z,9.40
2023-04-03T00:41:33.167Z,8.97
2023-04-03T00:44:02.203Z,9.50
2023-04-03T00:46:32.769Z,9.07
2023-04-03T00:49:01.921Z,9.27
2023-04-03T00:51:30.903Z,8.90
2023-04-03T00:54:05.274Z,9.10
2023-04-03T00:56:34.806Z,9.43
2023-04-03T00:59:08.150Z,9.13
2023-04-03T01:01:40.259Z,9.40
2023-04-03T01:04:29.987Z,9.37
2023-04-03T01:07:03.072Z,8.90
2023-04-03T01:09:32.469Z,9.30
2023-04-03T01:12:16.964Z,9.33
2023-04-03T01:14:47.096Z,9.30
2023-04-03T01:17:36.138Z,9.20
2023-04-03T01:20:33.399Z,9.40
2023-04-03T01:23:18.787Z,9.27
2023-04-03T01:25:50.941Z,9.07
2023-04-03T01:28:22.966Z,9.47
2023-04-03T01:30:59.068Z,9.37
2023-04-03T01:33:29.885Z,9.10
2023-04-03T01:35:58.925Z,9.70
2023-04-03T01:38:28.380Z,9.93
2023-04-03T01:40:57.704Z,10.40
2023-04-03T01:43:27.364Z,10.37
2023-04-03T01:45:56.762Z,10.57
2023-04-03T01:48:26.590Z,10.10
2023-04-03T01:50:58.312Z,10.13
2023-04-03T01:53:27.630Z,9.77
2023-04-03T01:55:56.641Z,10.60
2023-04-03T01:58:26.272Z,9.60
2023-04-03T02:00:56.823Z,9.80
2023-04-03T02:03:26.209Z,9.60
2023-04-03T02:05:55.562Z,10.60
2023-04-03T02:08:25.823Z,10.13
2023-04-03T02:10:54.784Z,10.60
2023-04-03T02:13:23.792Z,10.43
2023-04-03T02:15:52.901Z,10.13
2023-04-03T02:18:22.182Z,10.30
2023-04-03T02:20:51.810Z,9.43
2023-04-03T02:23:20.776Z,10.13
2023-04-03T02:25:51.148Z,9.60
2023-04-03T02:28:20.256Z,10.23
2023-04-03T02:30:49.534Z,9.73
2023-04-03T02:33:18.533Z,9.70
2023-04-03T02:35:54.202Z,10.07
2023-04-03T02:38:24.437Z,9.90
2023-04-03T02:40:55.230Z,9.93
2023-04-03T02:43:24.258Z,9.60
2023-04-03T02:45:53.345Z,10.50
2023-04-03T02:48:22.586Z,9.47
2023-04-03T02:50:52.119Z,9.77
2023-04-03T02:53:21.559Z,9.47
2023-04-03T02:55:52.613Z,9.60
2023-04-03T02:58:23.032Z,9.40
2023-04-03T03:00:52.840Z,9.67
2023-04-03T03:03:21.933Z,9.27
2023-04-03T03:05:50.968Z,9.63
2023-04-03T03:08:21.183Z,9.50
2023-04-03T03:10:52.129Z,9.60
2023-04-03T03:13:22.375Z,10.20
2023-04-03T03:15:51.625Z,9.70
2023-04-03T03:18:20.606Z,9.33
2023-04-03T03:20:54.042Z,8.83
2023-04-03T03:23:24.734Z,9.83
2023-04-03T03:25:57.262Z,9.53
2023-04-03T03:28:27.606Z,8.93
2023-04-03T03:30:56.568Z,9.37
2023-04-03T03:33:26.328Z,9.63
2023-04-03T03:35:55.698Z,9.13
2023-04-03T03:38:25.244Z,9.50
2023-04-03T03:40:55.077Z,8.87
2023-04-03T03:43:27.111Z,9.77
2023-04-03T03:45:57.743Z,10.20
2023-04-03T03:48:27.808Z,9.77
2023-04-03T03:50:56.601Z,10.07
2023-04-03T03:53:29.303Z,9.47
2023-04-03T03:56:02.255Z,10.27
2023-04-03T03:58:34.349Z,9.60
2023-04-03T04:01:06.726Z,9.33
2023-04-03T04:03:39.274Z,9.20
2023-04-03T04:06:10.570Z,9.87
2023-04-03T04:08:39.678Z,10.40
2023-04-03T04:11:11.502Z,9.70
2023-04-03T04:13:42.792Z,9.90
2023-04-03T04:16:13.982Z,9.77
2023-04-03T04:18:42.809Z,9.63
2023-04-03T04:21:11.859Z,9.97
2023-04-03T04:23:41.725Z,10.27
2023-04-03T04:26:11.395Z,9.37
2023-04-03T04:28:43.245Z,10.07
2023-04-03T04:31:12.595Z,9.60
2023-04-03T04:33:41.945Z,9.93
2023-04-03T04:36:15.818Z,10.27
2023-04-03T04:38:47.254Z,10.60
2023-04-03T04:41:17.031Z,10.30
2023-04-03T04:43:48.188Z,10.43
2023-04-03T04:46:18.712Z,10.60
2023-04-03T04:48:52.595Z,10.17
2023-04-03T04:51:23.649Z,10.40
2023-04-03T04:53:53.581Z,10.57
2023-04-03T04:56:24.665Z,10.17
2023-04-03T04:58:55.166Z,10.23
2023-04-03T05:01:25.557Z,10.13
2023-04-03T05:04:02.484Z,10.80
2023-04-03T05:06:32.758Z,10.30
2023-04-03T05:09:03.357Z,11.10
2023-04-03T05:11:34.038Z,9.90
2023-04-03T05:14:06.307Z,10.63
2023-04-03T05:16:36.736Z,10.53
2023-04-03T05:19:06.315Z,10.50
2023-04-03T05:21:35.694Z,10.27
2023-04-03T05:24:10.333Z,11.37
2023-04-03T05:26:42.664Z,10.50
2023-04-03T05:29:13.745Z,10.50
2023-04-03T05:31:43.809Z,10.37
2023-04-03T05:34:14.557Z,10.50
2023-04-03T05:36:44.405Z,10.70
2023-04-03T05:39:14.632Z,10.97
2023-04-03T05:41:46.417Z,10.27
2023-04-03T05:44:17.141Z,10.60
2023-04-03T05:46:48.296Z,10.37
2023-04-03T05:49:17.429Z,10.10
2023-04-03T05:51:46.714Z,10.07
2023-04-03T05:54:24.190Z,10.90
2023-04-03T05:56:56.774Z,10.20
2023-04-03T05:59:28.270Z,11.10
2023-04-03T06:02:00.085Z,10.90
2023-04-03T06:04:29.265Z,9.80
2023-04-03T06:06:59.735Z,10.10
2023-04-03T06:09:31.029Z,10.07
2023-04-03T06:12:00.495Z,9.60
2023-04-03T06:14:32.468Z,10.00
2023-04-03T06:17:02.602Z,9.80
2023-04-03T06:19:31.897Z,9.77
2023-04-03T06:22:01.223Z,9.87
2023-04-03T06:24:31.453Z,9.60
2023-04-03T06:27:00.711Z,10.10
2023-04-03T06:29:29.716Z,10.00
2023-04-03T06:32:00.208Z,10.33
2023-04-03T06:34:29.393Z,10.00
2023-04-03T06:36:58.468Z,9.67
2023-04-03T06:39:28.357Z,10.17
2023-04-03T06:41:57.665Z,9.93
2023-04-03T06:44:37.354Z,9.70
2023-04-03T06:47:07.774Z,9.97
2023-04-03T06:49:38.021Z,10.33
2023-04-03T06:52:07.530Z,9.77
2023-04-03T06:54:36.791Z,9.83
2023-04-03T06:57:05.934Z,10.87
2023-04-03T06:59:34.942Z,10.20
2023-04-03T07:02:04.530Z,9.67
2023-04-03T07:04:35.769Z,10.20
2023-04-03T07:07:04.980Z,10.10
2023-04-03T07:09:33.941Z,8.73
2023-04-03T07:12:03.051Z,9.57
2023-04-03T07:14:31.999Z,9.77
2023-04-03T07:17:01.102Z,9.93
2023-04-03T07:19:30.425Z,9.50
2023-04-03T07:22:00.718Z,9.37
2023-04-03T07:24:29.578Z,9.53
2023-04-03T07:26:58.614Z,9.33
2023-04-03T07:29:27.566Z,9.33
2023-04-03T07:31:57.632Z,9.17
2023-04-03T07:34:26.692Z,9.60
2023-04-03T07:36:55.873Z,9.90
2023-04-03T07:39:26.388Z,8.90
2023-04-03T07:41:56.296Z,8.30
2023-04-03T07:44:26.338Z,8.60
2023-04-03T07:46:56.492Z,8.80
2023-04-03T07:49:25.666Z,8.37
2023-04-03T07:51:55.353Z,8.20
2023-04-03T07:54:25.982Z,8.00
2023-04-03T07:56:55.081Z,8.43
2023-04-03T07:59:24.234Z,7.80
2023-04-03T08:01:53.664Z,7.70
2023-04-03T08:04:22.756Z,7.50
2023-04-03T08:06:52.033Z,8.10
2023-04-03T08:09:21.319Z,7.90
2023-04-03T08:11:54.196Z,6.97
2023-04-03T08:14:23.259Z,7.77
2023-04-03T08:16:52.562Z,8.17
2023-04-03T08:19:26.447Z,7.60
2023-04-03T08:21:57.702Z,7.27
2023-04-03T08:24:26.817Z,7.27
2023-04-03T08:26:57.509Z,7.83
2023-04-03T08:29:27.176Z,7.47
2023-04-03T08:31:56.413Z,7.70
2023-04-03T08:34:25.529Z,7.80
2023-04-03T08:36:54.612Z,6.73
2023-04-03T08:39:23.774Z,7.53
2023-04-03T08:41:52.896Z,7.90
2023-04-03T08:44:31.343Z,8.07
2023-04-03T08:47:12.959Z,7.53
2023-04-03T08:49:48.364Z,7.57
2023-04-03T08:52:21.932Z,8.00
2023-04-03T08:54:54.834Z,7.20
2023-04-03T08:57:31.757Z,7.30
2023-04-03T09:00:06.474Z,7.90
2023-04-03T09:02:45.612Z,8.47
2023-04-03T09:05:18.682Z,7.83
2023-04-03T09:07:57.609Z,7.33
2023-04-03T09:10:32.401Z,7.80
2023-04-03T09:13:08.568Z,7.70
2023-04-03T09:15:39.838Z,7.37
2023-04-03T09:18:17.686Z,7.90
2023-04-03T09:20:52.149Z,7.53
2023-04-03T09:23:26.986Z,7.63
2023-04-03T09:26:03.170Z,7.43
2023-04-03T09:28:42.608Z,7.87
2023-04-03T09:31:22.927Z,7.70
2023-04-03T09:33:55.651Z,7.87
2023-04-03T09:36:42.019Z,7.67
2023-04-03T09:39:15.745Z,7.73
2023-04-03T09:41:56.873Z,7.87
2023-04-03T09:44:27.508Z,7.97
2023-04-03T09:46:57.971Z,7.87
2023-04-03T09:49:27.157Z,7.67
2023-04-03T09:51:56.464Z,7.63
2023-04-03T09:54:38.262Z,7.60
2023-04-03T09:57:14.297Z,6.97
2023-04-03T09:59:48.341Z,7.17
2023-04-03T10:02:34.381Z,6.77
2023-04-03T10:07:37.921Z,7.03
2023-04-03T10:10:20.943Z,7.20
2023-04-03T10:12:50.356Z,7.50
2023-04-03T10:15:21.049Z,7.53
2023-04-03T10:18:00.499Z,6.90
2023-04-03T10:20:38.358Z,7.33
2023-04-03T10:23:21.009Z,7.23
2023-04-03T10:26:01.813Z,7.30
2023-04-03T10:28:37.231Z,7.40
2023-04-03T10:31:13.278Z,6.40
2023-04-03T10:33:53.626Z,6.73
2023-04-03T10:36:33.578Z,6.70
2023-04-03T10:39:11.200Z,7.47
2023-04-03T10:41:55.785Z,7.00
2023-04-03T10:44:37.808Z,6.90
2023-04-03T10:47:12.958Z,7.97
2023-04-03T10:49:59.935Z,7.50
2023-04-03T10:52:40.830Z,8.03
2023-04-03T10:55:26.713Z,7.70
2023-04-03T10:57:58.597Z,7.37
2023-04-03T11:00:38.554Z,7.57
2023-04-03T11:03:13.944Z,6.83
2023-04-03T11:05:47.283Z,6.83
2023-04-03T11:08:28.243Z,6.77
2023-04-03T11:11:01.701Z,6.47
2023-04-03T11:13:36.702Z,7.50
2023-04-03T11:16:07.556Z,6.93
2023-04-03T11:18:42.117Z,7.40
2023-04-03T11:21:18.375Z,6.87
2023-04-03T11:23:50.231Z,7.60
2023-04-03T11:26:22.857Z,6.50
2023-04-03T11:28:56.261Z,6.90
2023-04-03T11:31:42.016Z,6.70
2023-04-03T11:34:26.605Z,6.70
2023-04-03T11:37:00.228Z,6.73
2023-04-03T11:39:32.977Z,6.80
2023-04-03T11:42:17.951Z,6.40
2023-04-03T11:44:47.395Z,6.20
2023-04-03T11:47:47.981Z,6.80
2023-04-03T11:50:42.376Z,5.83
2023-04-03T11:53:32.587Z,6.30
2023-04-03T11:56:38.438Z,5.93
2023-04-03T11:59:25.656Z,6.20
2023-04-03T12:01:56.096Z,6.40
2023-04-03T12:04:28.650Z,5.90
2023-04-03T12:07:18.683Z,5.93
2023-04-03T12:10:31.870Z,6.17
2023-04-03T12:13:05.000Z,5.73
2023-04-03T12:15:55.832Z,5.77
2023-04-03T12:19:04.354Z,5.67
2023-04-03T12:22:21.953Z,5.40
2023-04-03T12:24:53.335Z,5.00
2023-04-03T12:27:37.037Z,3.90
2023-04-03T12:30:27.716Z,4.97
2023-04-03T12:33:36.685Z,3.80
2023-04-03T12:36:12.435Z,3.67
2023-04-03T12:39:03.515Z,3.00
2023-04-03T12:41:41.232Z,3.37
2023-04-03T12:44:38.148Z,3.23
2023-04-03T12:47:27.652Z,4.03
2023-04-03T12:49:57.907Z,2.67
2023-04-03T12:52:35.944Z,2.53
2023-04-03T12:55:11.048Z,2.43
2023-04-03T12:57:40.126Z,4.57
2023-04-03T13:00:34.361Z,1.90
2023-04-03T13:03:05.967Z,2.90
2023-04-03T13:05:37.309Z,3.07
2023-04-03T13:08:11.840Z,4.20
2023-04-03T13:10:57.114Z,3.10
2023-04-03T13:13:27.351Z,3.30
2023-04-03T13:15:58.063Z,3.77
2023-04-03T13:18:32.113Z,6.97
2023-04-03T13:21:06.085Z,4.13
2023-04-03T13:23:38.314Z,4.00
2023-04-03T13:26:08.649Z,3.87
2023-04-03T13:28:38.596Z,4.33
2023-04-03T13:31:23.639Z,5.23
2023-04-03T13:33:59.943Z,4.70
2023-04-03T13:36:32.889Z,4.83
2023-04-03T13:39:06.166Z,5.00
2023-04-03T13:41:38.002Z,6.00
2023-04-03T13:44:36.286Z,5.40
2023-04-03T13:47:20.716Z,5.00
2023-04-03T13:50:04.254Z,5.30
2023-04-03T13:52:37.428Z,5.70
2023-04-03T13:55:25.763Z,5.27
2023-04-03T13:57:59.117Z,5.23
2023-04-03T14:00:38.070Z,6.07
2023-04-03T14:03:16.615Z,5.93
2023-04-03T14:05:46.505Z,5.83
2023-04-03T14:08:15.980Z,6.10
2023-04-03T14:10:46.005Z,6.23
2023-04-03T14:13:17.135Z,6.50
2023-04-03T14:15:48.393Z,7.07
2023-04-03T14:18:22.018Z,6.37
2023-04-03T14:20:52.501Z,5.80
2023-04-03T14:23:21.889Z,6.27
2023-04-03T14:25:52.693Z,6.03
2023-04-03T14:28:24.000Z,6.03
2023-04-03T14:30:53.944Z,5.87
2023-04-03T14:43:00.779Z,7.50
2023-04-03T14:45:29.878Z,6.87
2023-04-03T15:04:41.160Z,8.13
2023-04-03T15:07:10.844Z,8.10
2023-04-03T15:09:40.001Z,7.57
2023-04-03T15:12:11.038Z,8.43
2023-04-03T15:17:17.971Z,8.67
2023-04-03T15:19:48.379Z,7.80
2023-04-03T15:22:18.354Z,8.37
2023-04-03T15:24:47.552Z,8.13
2023-04-03T15:27:17.345Z,7.70
2023-04-03T15:29:46.886Z,7.73
2023-04-03T15:32:16.035Z,7.90
2023-04-03T15:34:45.169Z,8.10
2023-04-03T15:37:15.835Z,7.90
2023-04-03T15:39:44.895Z,7.80
2023-04-03T15:42:13.750Z,7.90
2023-04-03T15:44:42.872Z,7.93
2023-04-03T15:47:11.963Z,8.20
2023-04-03T15:49:41.404Z,7.90
2023-04-03T15:52:10.361Z,7.97
2023-04-03T15:54:40.663Z,8.40
2023-04-03T15:57:10.047Z,8.00
2023-04-03T15:59:39.254Z,7.93
2023-04-03T16:02:13.745Z,7.73
2023-04-03T16:04:43.468Z,7.93
2023-04-03T16:07:12.683Z,8.00
2023-04-03T16:09:43.208Z,8.23
2023-04-03T16:12:12.518Z,8.17
2023-04-03T16:14:41.575Z,9.70
2023-04-03T16:17:10.570Z,9.47
2023-04-03T16:19:39.533Z,9.23
2023-04-03T16:22:08.597Z,9.00
2023-04-03T16:24:39.019Z,8.73
2023-04-03T16:27:09.251Z,8.47
2023-04-03T16:29:38.186Z,8.43
2023-04-03T16:32:07.336Z,8.67
2023-04-03T16:34:36.470Z,8.60
2023-04-03T16:37:05.853Z,8.63
2023-04-03T16:39:34.886Z,9.93
2023-04-03T16:42:03.931Z,8.90
2023-04-03T16:44:34.665Z,9.13
2023-04-03T16:47:04.039Z,9.63
2023-04-03T16:49:34.979Z,9.17
2023-04-03T16:52:05.983Z,10.43
2023-04-03T16:54:35.577Z,9.07
2023-04-03T17:00:12.147Z,10.63
2023-04-03T17:02:41.629Z,9.27
2023-04-03T17:05:10.928Z,8.93
2023-04-03T17:07:40.329Z,8.90
2023-04-03T17:10:10.506Z,8.57
2023-04-03T17:12:39.590Z,9.13
2023-04-03T17:15:11.337Z,10.27
2023-04-03T17:17:40.524Z,10.93
2023-04-03T17:20:11.160Z,9.73
2023-04-03T17:22:40.293Z,9.73
2023-04-03T17:25:10.968Z,8.97
2023-04-03T17:27:40.559Z,8.90
2023-04-03T17:30:12.623Z,8.97
2023-04-03T17:32:41.967Z,9.37
2023-04-03T17:35:11.754Z,9.00
2023-04-03T17:37:41.261Z,8.70
2023-04-03T17:40:14.285Z,8.30
2023-04-03T17:42:43.351Z,9.40
2023-04-03T17:45:13.982Z,9.40
2023-04-03T17:47:42.981Z,9.30
2023-04-03T17:50:12.347Z,8.67
2023-04-03T17:52:41.480Z,9.27
2023-04-03T17:55:10.815Z,10.40
2023-04-03T17:57:40.077Z,10.00
2023-04-03T18:00:10.404Z,9.00
2023-04-03T18:02:43.685Z,8.97
2023-04-03T18:05:12.790Z,8.90
2023-04-03T18:07:42.388Z,9.10
2023-04-03T18:10:11.856Z,9.10
2023-04-03T18:12:42.446Z,9.23
2023-04-03T18:15:12.582Z,8.90
2023-04-03T18:17:42.995Z,9.63
2023-04-03T18:20:15.132Z,9.40
2023-04-03T18:22:44.409Z,9.80
2023-04-03T18:25:14.300Z,8.83
2023-04-03T18:27:44.545Z,9.20
2023-04-03T18:30:17.021Z,9.50
2023-04-03T18:32:47.439Z,9.63
2023-04-03T18:35:16.378Z,10.33
2023-04-03T18:37:45.244Z,10.33
2023-04-03T18:40:14.610Z,10.00
2023-04-03T18:42:44.834Z,10.03
2023-04-03T18:45:18.726Z,9.60
2023-04-03T18:47:49.204Z,9.23
2023-04-03T18:50:18.920Z,9.57
2023-04-03T18:52:50.607Z,9.63
2023-04-03T18:55:20.340Z,9.20
2023-04-03T18:57:50.629Z,9.70
2023-04-03T19:00:20.479Z,9.57
2023-04-03T19:02:51.394Z,9.80
2023-04-03T19:05:22.175Z,9.10
2023-04-03T19:07:51.546Z,9.00
2023-04-03T19:10:20.969Z,9.53
2023-04-03T19:12:51.276Z,9.10
2023-04-03T19:15:22.474Z,8.83
2023-04-03T19:17:53.086Z,8.97
2023-04-03T19:20:22.659Z,8.93
2023-04-03T19:22:52.174Z,9.73
2023-04-03T19:25:21.264Z,9.67
2023-04-03T19:27:51.465Z,9.30
2023-04-03T19:30:20.821Z,9.03
2023-04-03T19:32:49.962Z,9.50
2023-04-03T19:35:21.510Z,9.27
2023-04-03T19:37:51.182Z,9.43
2023-04-03T19:40:20.794Z,9.87
2023-04-03T19:42:49.865Z,10.33
2023-04-03T19:45:19.760Z,10.73
2023-04-03T19:47:49.258Z,10.37
2023-04-03T19:50:18.525Z,9.87
2023-04-03T19:52:49.235Z,9.70
2023-04-03T19:55:18.426Z,10.73
2023-04-03T19:57:47.498Z,9.40
2023-04-03T20:00:17.466Z,9.43
2023-04-03T20:02:46.552Z,10.13
2023-04-03T20:05:15.873Z,9.97
2023-04-03T20:07:44.806Z,9.33
2023-04-03T20:10:15.677Z,9.87
2023-04-03T20:12:45.701Z,9.70
2023-04-03T20:15:15.281Z,9.67
2023-04-03T20:17:44.524Z,9.80
2023-04-03T20:20:14.659Z,9.60
2023-04-03T20:22:43.616Z,9.53
2023-04-03T20:25:23.674Z,9.53
2023-04-03T20:28:05.763Z,9.73
2023-04-03T20:30:36.377Z,9.83
2023-04-03T20:33:06.495Z,9.47
2023-04-03T20:35:36.922Z,9.50
2023-04-03T20:38:07.578Z,9.50
2023-04-03T20:40:40.258Z,9.40
2023-04-03T20:43:11.738Z,9.23
2023-04-03T20:45:43.963Z,9.60
2023-04-03T20:48:16.655Z,9.63
2023-04-03T20:50:46.609Z,9.80
2023-04-03T20:53:18.146Z,9.27
2023-04-03T20:55:59.846Z,11.33
2023-04-03T20:58:30.642Z,11.17
2023-04-03T21:01:00.591Z,10.50
2023-04-03T21:03:31.384Z,10.03
2023-04-03T21:06:00.879Z,9.57
2023-04-03T21:09:07.624Z,10.83
2023-04-03T21:12:14.108Z,9.80
2023-04-03T21:15:21.397Z,11.87
2023-04-03T21:18:18.074Z,13.53
2023-04-03T21:20:49.555Z,11.73
2023-04-03T21:23:20.391Z,13.10
2023-04-03T21:25:49.938Z,15.10
2023-04-03T21:28:19.086Z,19.17
2023-04-03T21:30:48.040Z,14.13
2023-04-03T21:33:18.214Z,10.80
2023-04-03T21:35:47.939Z,9.90
2023-04-03T21:38:17.150Z,10.07
2023-04-03T21:40:46.796Z,10.17
2023-04-03T21:43:16.151Z,10.20
2023-04-03T21:45:45.192Z,9.83
2023-04-03T21:48:16.476Z,9.97
2023-04-03T21:50:53.752Z,10.20
2023-04-03T21:53:23.614Z,10.30
2023-04-03T21:55:57.231Z,10.40
2023-04-03T21:58:34.275Z,10.20
2023-04-03T22:01:11.797Z,10.60
2023-04-03T22:03:42.077Z,10.10
2023-04-03T22:06:14.241Z,10.40
2023-04-03T22:08:43.855Z,10.20
2023-04-03T22:11:14.739Z,10.67
2023-04-03T22:13:45.114Z,10.87
2023-04-03T22:16:14.197Z,10.57
2023-04-03T22:18:43.197Z,9.87
2023-04-03T22:21:13.493Z,10.47
2023-04-03T22:23:42.435Z,9.90
2023-04-03T22:26:12.684Z,9.17
2023-04-03T22:28:43.543Z,11.57
2023-04-03T22:31:14.334Z,10.20
2023-04-03T22:33:44.362Z,9.80
2023-04-03T22:36:15.474Z,10.13
2023-04-03T22:38:44.872Z,10.37
2023-04-03T22:41:14.478Z,10.07
2023-04-03T22:43:43.640Z,10.50
2023-04-03T22:46:13.657Z,10.10
2023-04-03T22:48:43.442Z,9.97
2023-04-03T22:51:13.988Z,10.50
2023-04-03T22:53:42.870Z,10.00
2023-04-03T22:56:12.377Z,9.83
2023-04-03T22:58:41.474Z,9.63
2023-04-03T23:01:12.066Z,10.20
2023-04-03T23:03:43.290Z,10.43
2023-04-03T23:06:13.299Z,9.97
2023-04-03T23:08:43.762Z,10.53
2023-04-03T23:11:12.841Z,9.97
2023-04-03T23:13:43.544Z,10.03
2023-04-03T23:16:12.941Z,9.67
2023-04-03T23:18:43.575Z,10.30
2023-04-03T23:21:12.850Z,10.40
2023-04-03T23:23:42.996Z,10.03
2023-04-03T23:26:12.704Z,9.90
2023-04-03T23:28:41.836Z,9.83
2023-04-03T23:31:11.289Z,9.93
2023-04-03T23:33:43.682Z,10.13
2023-04-03T23:36:15.813Z,10.00
2023-04-03T23:38:46.244Z,10.50
2023-04-03T23:41:15.366Z,10.20
2023-04-03T23:43:46.426Z,10.20
2023-04-03T23:46:15.553Z,10.40
2023-04-03T23:48:44.945Z,10.10
2023-04-03T23:51:13.890Z,10.40
2023-04-03T23:53:42.933Z,10.27
2023-04-03T23:56:13.177Z,10.43
2023-04-03T23:58:42.338Z,10.13
